Terminal Aerodrome Forecast
Issued by NWS

Current Version | Previous Version | Text Only | Print | Product List | Glossary On
Versions: 1 2 3 4 5 6 7 8 9 10 11 12
000
FTUS45 KABQ 112321
TAFFMN
TAF
KFMN 112321Z 1200/1224 26008KT P6SM SKC
     FM120500 07005KT P6SM SKC
     FM121600 12006KT P6SM FEW250
     FM122000 26008KT P6SM FEW250=

USA.gov is the U.S. government's official web portal to all federal, state and local government web resources and services.